Forside
METAR-TAF:

METAR-TAF

Lufthavne :

Pyongyang, Nordkorea

Breddekreds: 39-02N, længdekreds: 125-47E, højde: 36 m

METAR: fraværende

Tid: 09:26 (00:56 UTC)

Vejrudsigter

Denne rapport blev lavet for 3 timer og 56 minutter siden, kl. 21:00 UTC
Foreløbig gælder fra 18 på 00 UTC til 18 på 24 UTC
Vind 6 kt fra sydøst
Sigt 10 km eller mere
ingen skyer under 1500m og ingen cumulonimbus
Midlertidig
fra 18 på 02 UTC til 18 på 08 UTC
Spredte skyer i en højde af 2000 ft
ændring
fra 18 på 04 UTC til 18 på 06 UTC
Vind 10 kt fra nordvest

TAF: ZKPY 172100Z 1800/1824 14003MPS CAVOK TX30/1806Z TN18/1821Z TEMPO 1802/1808 SCT020 BECMG 1804/1806 32005MPS

Vejrobservationer og prognoser fra mere end 4000 lufthavne (METAR og TAF).

De gule og røde prikker repræsenterer de meteorologiske stationer.

Flyt musen over at se navnet på stationen.

Så klik over at se vejr observationer og prognoser.

At skifte det kort: Klik på de grønne knapper med et sort kors for at zoome ind; på den grønne knap med en bindestreg for at zoome ud; eller på de grønne pile for tilstødende kort.


METAR-TAF: